createdAt,value
2018-03-14T00:00:52.512Z,10.20
2018-03-14T00:03:19.972Z,20.58
2018-03-14T00:05:48.390Z,13.45
2018-03-14T00:08:15.873Z,12.57
2018-03-14T00:10:43.350Z,14.30
2018-03-14T00:13:10.820Z,14.75
2018-03-14T00:15:38.476Z,13.45
2018-03-14T00:18:06.004Z,11.38
2018-03-14T00:20:33.495Z,14.38
2018-03-14T00:23:00.973Z,13.80
2018-03-14T00:25:28.458Z,13.15
2018-03-14T00:27:55.935Z,14.38
2018-03-14T00:30:23.393Z,8.50
2018-03-14T00:32:51.778Z,17.70
2018-03-14T00:35:19.243Z,13.15
2018-03-14T00:37:46.730Z,15.88
2018-03-14T00:40:14.203Z,15.70
2018-03-14T00:42:41.677Z,11.70
2018-03-14T00:45:09.137Z,14.60
2018-03-14T00:47:36.612Z,13.98
2018-03-14T00:50:05.981Z,20.70
2018-03-14T00:52:33.452Z,11.57
2018-03-14T00:55:01.361Z,12.52
2018-03-14T00:57:28.838Z,13.52
2018-03-14T00:59:56.319Z,11.68
2018-03-14T01:02:23.807Z,15.10
2018-03-14T01:04:51.269Z,18.73
2018-03-14T01:07:18.728Z,12.75
2018-03-14T01:09:46.354Z,14.93
2018-03-14T01:12:13.833Z,16.42
2018-03-14T01:14:41.301Z,17.27
2018-03-14T01:17:08.756Z,13.40
2018-03-14T01:19:36.227Z,19.12
2018-03-14T01:22:03.680Z,13.30
2018-03-14T01:24:31.156Z,13.62
2018-03-14T01:26:58.621Z,11.55
2018-03-14T01:29:26.105Z,18.85
2018-03-14T01:31:53.557Z,16.90
2018-03-14T01:34:21.038Z,16.70
2018-03-14T01:36:48.500Z,15.52
2018-03-14T01:39:15.994Z,12.15
2018-03-14T01:41:43.459Z,15.13
2018-03-14T01:44:10.945Z,14.87
2018-03-14T01:46:39.309Z,13.62
2018-03-14T01:49:06.797Z,13.55
2018-03-14T01:51:34.277Z,18.15
2018-03-14T01:54:01.768Z,20.48
2018-03-14T01:56:29.223Z,15.00
2018-03-14T01:58:56.697Z,16.25
2018-03-14T02:01:24.167Z,16.37
2018-03-14T02:03:51.640Z,18.90
2018-03-14T02:06:19.105Z,19.00
2018-03-14T02:08:47.501Z,22.00
2018-03-14T02:11:15.874Z,17.27
2018-03-14T02:13:43.353Z,16.35
2018-03-14T02:16:10.813Z,19.60
2018-03-14T02:18:38.269Z,18.70
2018-03-14T02:21:05.758Z,15.93
2018-03-14T02:23:33.233Z,20.15
2018-03-14T02:26:00.713Z,14.48
2018-03-14T02:28:28.184Z,14.02
2018-03-14T02:30:55.657Z,17.23
2018-03-14T02:33:23.125Z,15.35
2018-03-14T02:35:50.606Z,13.23
2018-03-14T02:38:18.073Z,16.40
2018-03-14T02:40:45.562Z,13.50
2018-03-14T02:43:13.026Z,23.38
2018-03-14T02:45:40.505Z,13.82
2018-03-14T02:48:07.960Z,15.90
2018-03-14T02:50:35.469Z,16.80
2018-03-14T02:53:02.887Z,15.73
2018-03-14T02:55:30.371Z,13.07
2018-03-14T02:57:57.813Z,14.63
2018-03-14T03:00:25.277Z,15.02
2018-03-14T03:02:52.719Z,13.50
2018-03-14T03:05:20.193Z,13.45
2018-03-14T03:07:47.640Z,11.73
2018-03-14T03:10:15.106Z,14.02
2018-03-14T03:12:42.553Z,18.45
2018-03-14T03:15:10.021Z,33.00
2018-03-14T03:17:37.477Z,21.35
2018-03-14T03:20:04.942Z,22.23
2018-03-14T03:22:32.387Z,14.38
2018-03-14T03:24:59.844Z,12.57
2018-03-14T03:27:27.357Z,15.57
2018-03-14T03:29:54.825Z,17.55
2018-03-14T03:32:22.271Z,12.77
2018-03-14T03:34:49.716Z,10.23
2018-03-14T03:37:17.159Z,14.95
2018-03-14T03:39:44.621Z,10.38
2018-03-14T03:42:12.056Z,17.08
2018-03-14T03:44:39.513Z,18.35
2018-03-14T03:47:06.953Z,13.32
2018-03-14T03:49:34.412Z,13.68
2018-03-14T03:52:01.853Z,11.68
2018-03-14T03:54:29.313Z,11.52
2018-03-14T03:56:56.760Z,15.02
2018-03-14T03:59:24.217Z,9.65
2018-03-14T04:01:51.657Z,9.38
2018-03-14T04:04:19.120Z,15.68
2018-03-14T04:06:46.571Z,10.23
2018-03-14T04:09:14.024Z,6.82
2018-03-14T04:11:41.497Z,6.78
2018-03-14T04:14:08.940Z,9.05
2018-03-14T04:16:36.397Z,5.78
2018-03-14T04:19:05.741Z,7.57
2018-03-14T04:21:33.210Z,10.63
2018-03-14T04:24:00.646Z,5.15
2018-03-14T04:26:28.113Z,13.00
2018-03-14T04:28:55.552Z,8.38
2018-03-14T04:31:23.013Z,14.80
2018-03-14T04:33:50.457Z,8.98
2018-03-14T04:36:17.921Z,7.45
2018-03-14T04:38:45.370Z,8.43
2018-03-14T04:41:12.836Z,8.25
2018-03-14T04:43:40.282Z,6.97
2018-03-14T04:46:07.758Z,8.05
2018-03-14T04:48:35.198Z,7.12
2018-03-14T04:51:02.653Z,8.60
2018-03-14T04:53:30.093Z,7.43
2018-03-14T04:55:57.548Z,8.18
2018-03-14T04:58:25.015Z,8.38
2018-03-14T05:00:52.475Z,6.50
2018-03-14T05:03:19.915Z,10.55
2018-03-14T05:05:47.381Z,10.18
2018-03-14T05:08:14.833Z,6.60
2018-03-14T05:10:42.294Z,5.18
2018-03-14T05:13:09.747Z,9.38
2018-03-14T05:15:37.214Z,6.62
2018-03-14T05:18:04.662Z,7.80
2018-03-14T05:20:33.055Z,6.07
2018-03-14T05:23:00.517Z,8.23
2018-03-14T05:25:27.982Z,8.60
2018-03-14T05:27:55.429Z,7.65
2018-03-14T05:30:22.880Z,11.10
2018-03-14T05:32:50.320Z,10.90
2018-03-14T05:35:18.682Z,7.12
2018-03-14T05:37:46.121Z,5.68
2018-03-14T05:40:13.582Z,7.35
2018-03-14T05:42:41.925Z,6.53
2018-03-14T05:45:09.382Z,7.12
2018-03-14T05:47:36.829Z,7.95
2018-03-14T05:50:04.285Z,8.05
2018-03-14T05:52:31.731Z,6.05
2018-03-14T05:54:59.189Z,8.38
2018-03-14T05:57:27.530Z,7.25
2018-03-14T05:59:55.001Z,12.00
2018-03-14T06:02:22.445Z,6.28
2018-03-14T06:04:49.909Z,8.05
2018-03-14T06:07:17.345Z,7.37
2018-03-14T06:09:44.802Z,5.82
2018-03-14T06:12:12.245Z,7.32
2018-03-14T06:14:39.701Z,8.98
2018-03-14T06:17:07.172Z,7.75
2018-03-14T06:19:34.613Z,8.35
2018-03-14T06:22:02.062Z,7.93
2018-03-14T06:24:29.525Z,7.20
2018-03-14T06:26:57.877Z,7.85
2018-03-14T06:29:25.334Z,7.00
2018-03-14T06:31:52.798Z,7.47
2018-03-14T06:34:20.249Z,8.25
2018-03-14T06:36:47.721Z,8.77
2018-03-14T06:39:15.157Z,8.35
2018-03-14T06:41:42.626Z,6.57
2018-03-14T06:44:10.073Z,7.82
2018-03-14T06:46:38.433Z,9.52
2018-03-14T06:49:05.873Z,6.60
2018-03-14T06:51:34.219Z,6.65
2018-03-14T06:54:01.672Z,8.57
2018-03-14T06:56:29.104Z,9.95
2018-03-14T06:59:09.089Z,9.55
2018-03-14T07:01:48.169Z,10.00
2018-03-14T07:04:27.218Z,8.10
2018-03-14T07:06:54.682Z,7.70
2018-03-14T07:09:22.132Z,7.75
2018-03-14T07:11:49.593Z,8.35
2018-03-14T07:14:17.043Z,7.57
2018-03-14T07:16:44.509Z,9.95
2018-03-14T07:19:11.953Z,7.18
2018-03-14T07:21:39.419Z,7.95
2018-03-14T07:24:06.857Z,6.68
2018-03-14T07:26:34.356Z,10.95
2018-03-14T07:29:01.801Z,6.65
2018-03-14T07:31:29.251Z,9.90
2018-03-14T07:33:56.709Z,9.73
2018-03-14T07:36:25.069Z,7.20
2018-03-14T07:38:52.521Z,7.97
2018-03-14T07:41:19.977Z,7.90
2018-03-14T07:43:47.450Z,6.90
2018-03-14T07:46:14.897Z,7.78
2018-03-14T07:48:44.270Z,7.97
2018-03-14T07:51:11.729Z,10.35
2018-03-14T07:53:40.085Z,6.40
2018-03-14T07:56:07.533Z,6.28
2018-03-14T07:58:35.002Z,7.15
2018-03-14T08:01:02.436Z,8.05
2018-03-14T08:03:29.890Z,10.13
2018-03-14T08:05:57.332Z,7.90
2018-03-14T08:08:24.785Z,9.95
2018-03-14T08:10:53.120Z,7.20
2018-03-14T08:13:20.623Z,7.70
2018-03-14T08:15:48.044Z,8.55
2018-03-14T08:18:15.508Z,13.52
2018-03-14T08:20:42.960Z,7.20
2018-03-14T08:23:10.420Z,6.80
2018-03-14T08:25:37.887Z,9.43
2018-03-14T08:28:05.362Z,8.25
2018-03-14T08:30:32.806Z,7.70
2018-03-14T08:33:00.275Z,7.43
2018-03-14T08:35:27.712Z,6.72
2018-03-14T08:37:55.160Z,6.97
2018-03-14T08:40:22.592Z,5.37
2018-03-14T08:42:50.040Z,7.20
2018-03-14T08:45:18.393Z,8.15
2018-03-14T08:47:45.840Z,7.60
2018-03-14T08:50:13.303Z,10.18
2018-03-14T08:52:40.781Z,16.12
2018-03-14T08:55:08.232Z,5.90
2018-03-14T08:57:35.694Z,7.35
2018-03-14T09:02:53.226Z,6.90
2018-03-14T09:05:20.654Z,7.25
2018-03-14T09:07:48.090Z,6.40
2018-03-14T09:10:16.432Z,7.03
2018-03-14T09:12:44.789Z,6.65
2018-03-14T09:15:12.229Z,8.38
2018-03-14T09:17:40.598Z,8.95
2018-03-14T09:20:08.048Z,9.32
2018-03-14T09:22:36.416Z,9.95
2018-03-14T09:25:03.862Z,8.50
2018-03-14T09:27:32.261Z,21.20
2018-03-14T09:29:59.700Z,11.02
2018-03-14T09:32:27.157Z,7.80
2018-03-14T09:34:58.233Z,9.05
2018-03-14T09:37:25.689Z,8.70
2018-03-14T09:39:53.140Z,11.25
2018-03-14T09:42:20.606Z,13.85
2018-03-14T09:44:48.062Z,12.57
2018-03-14T09:47:15.534Z,15.55
2018-03-14T09:49:43.908Z,14.90
2018-03-14T09:52:11.352Z,8.77
2018-03-14T09:54:38.798Z,9.68
2018-03-14T09:57:06.273Z,10.13
2018-03-14T09:59:33.721Z,8.30
2018-03-14T10:02:01.190Z,11.85
2018-03-14T10:04:28.657Z,10.18
2018-03-14T10:06:56.104Z,13.50
2018-03-14T10:09:24.487Z,11.95
2018-03-14T10:11:51.942Z,11.98
2018-03-14T10:14:19.382Z,9.32
2018-03-14T10:16:46.842Z,12.90
2018-03-14T10:19:15.284Z,12.07
2018-03-14T10:21:42.733Z,10.43
2018-03-14T10:24:11.082Z,11.60
2018-03-14T10:26:38.545Z,12.27
2018-03-14T10:29:06.029Z,11.38
2018-03-14T10:31:33.469Z,9.30
2018-03-14T10:34:00.929Z,10.27
2018-03-14T10:36:28.389Z,11.63
2018-03-14T10:38:55.841Z,9.95
2018-03-14T10:41:23.293Z,15.32
2018-03-14T10:43:51.657Z,10.93
2018-03-14T10:46:19.125Z,12.10
2018-03-14T10:48:46.576Z,11.77
2018-03-14T10:51:14.037Z,10.63
2018-03-14T10:53:41.484Z,13.60
2018-03-14T10:56:12.302Z,9.55
2018-03-14T10:58:39.789Z,12.45
2018-03-14T11:01:10.040Z,9.13
2018-03-14T11:03:44.316Z,11.35
2018-03-14T11:06:11.811Z,11.98
2018-03-14T11:08:39.249Z,11.70
2018-03-14T11:11:06.744Z,10.80
2018-03-14T11:13:35.073Z,10.65
2018-03-14T11:16:02.543Z,15.43
2018-03-14T11:18:30.015Z,12.63
2018-03-14T11:20:57.468Z,13.70
2018-03-14T11:23:24.928Z,13.35
2018-03-14T11:25:56.982Z,12.40
2018-03-14T11:28:24.441Z,9.30
2018-03-14T11:30:52.807Z,13.55
2018-03-14T11:33:20.312Z,12.98
2018-03-14T11:35:47.767Z,14.40
2018-03-14T11:38:15.226Z,14.10
2018-03-14T11:40:43.585Z,10.02
2018-03-14T11:43:11.060Z,10.80
2018-03-14T11:45:38.516Z,11.30
2018-03-14T11:48:05.989Z,12.60
2018-03-14T11:50:33.451Z,14.70
2018-03-14T11:53:01.845Z,13.43
2018-03-14T11:55:29.318Z,10.82
2018-03-14T11:57:56.781Z,14.65
2018-03-14T12:00:24.232Z,13.07
2018-03-14T12:02:51.693Z,9.43
2018-03-14T12:05:19.141Z,9.35
2018-03-14T12:07:46.605Z,11.95
2018-03-14T12:10:14.102Z,11.07
2018-03-14T12:12:41.557Z,9.98
2018-03-14T12:15:09.010Z,10.13
2018-03-14T12:17:36.483Z,14.05
2018-03-14T12:20:03.946Z,9.32
2018-03-14T12:22:31.417Z,12.55
2018-03-14T12:24:58.889Z,13.55
2018-03-14T12:27:26.358Z,12.98
2018-03-14T12:29:53.862Z,11.38
2018-03-14T12:32:21.306Z,10.95
2018-03-14T12:34:48.753Z,8.73
2018-03-14T12:37:16.232Z,10.38
2018-03-14T12:39:43.686Z,10.23
2018-03-14T12:42:11.229Z,11.20
2018-03-14T12:44:38.662Z,12.57
2018-03-14T12:47:06.129Z,7.45
2018-03-14T12:49:33.593Z,5.40
2018-03-14T12:52:01.093Z,7.07
2018-03-14T12:54:28.546Z,7.30
2018-03-14T12:56:56.018Z,5.12
2018-03-14T12:59:23.542Z,6.30
2018-03-14T13:01:51.009Z,5.32
2018-03-14T13:04:18.458Z,6.03
2018-03-14T13:06:45.921Z,6.75
2018-03-14T13:09:13.370Z,6.22
2018-03-14T13:11:40.899Z,8.93
2018-03-14T13:14:08.306Z,9.63
2018-03-14T13:16:35.780Z,9.90
2018-03-14T13:19:03.238Z,8.80
2018-03-14T13:21:31.602Z,9.27
2018-03-14T13:23:59.059Z,11.15
2018-03-14T13:26:26.530Z,11.02
2018-03-14T13:28:54.885Z,9.85
2018-03-14T13:31:24.262Z,12.13
2018-03-14T13:33:51.722Z,10.60
2018-03-14T13:36:19.173Z,10.70
2018-03-14T13:38:46.640Z,10.70
2018-03-14T13:41:14.085Z,13.93
2018-03-14T13:43:41.548Z,9.68
2018-03-14T13:46:09.000Z,13.45
2018-03-14T13:48:36.471Z,7.15
2018-03-14T13:51:05.813Z,13.25
2018-03-14T13:53:34.189Z,11.43
2018-03-14T13:56:02.549Z,12.02
2018-03-14T13:58:30.026Z,10.68
2018-03-14T14:00:57.490Z,9.27
2018-03-14T14:03:24.988Z,15.52
2018-03-14T14:05:53.351Z,14.68
2018-03-14T14:08:21.721Z,10.82
2018-03-14T14:10:50.070Z,9.70
2018-03-14T14:13:19.446Z,10.43
2018-03-14T14:15:46.908Z,8.68
2018-03-14T14:18:14.425Z,11.95
2018-03-14T14:20:42.800Z,12.37
2018-03-14T14:23:11.165Z,9.95
2018-03-14T14:25:40.155Z,7.90
2018-03-14T14:28:07.684Z,11.15
2018-03-14T14:30:35.163Z,8.95
2018-03-14T14:33:02.692Z,10.77
2018-03-14T14:35:30.258Z,11.75
2018-03-14T14:37:57.829Z,10.93
2018-03-14T14:40:25.402Z,12.27
2018-03-14T14:42:53.020Z,12.82
2018-03-14T14:45:20.718Z,11.93
2018-03-14T14:47:49.030Z,11.68
2018-03-14T14:50:17.119Z,13.48
2018-03-14T14:52:44.979Z,10.30
2018-03-14T14:55:13.433Z,10.43
2018-03-14T14:57:41.847Z,13.00
2018-03-14T15:00:09.337Z,9.93
2018-03-14T15:02:36.858Z,12.57
2018-03-14T15:05:06.295Z,17.25
2018-03-14T15:07:34.766Z,12.10
2018-03-14T15:10:02.268Z,15.85
2018-03-14T15:12:30.781Z,10.65
2018-03-14T15:14:59.191Z,13.68
2018-03-14T15:17:26.678Z,16.08
2018-03-14T15:19:54.159Z,11.90
2018-03-14T15:22:21.713Z,13.70
2018-03-14T15:24:50.122Z,12.05
2018-03-14T15:27:18.477Z,12.52
2018-03-14T15:29:45.989Z,10.10
2018-03-14T15:32:14.429Z,11.25
2018-03-14T15:34:41.905Z,11.35
2018-03-14T15:37:09.359Z,11.30
2018-03-14T15:39:37.728Z,12.70
2018-03-14T15:42:05.210Z,12.75
2018-03-14T15:44:37.520Z,11.75
2018-03-14T15:47:05.913Z,12.98
2018-03-14T15:49:33.409Z,14.68
2018-03-14T15:52:00.890Z,11.23
2018-03-14T15:54:29.273Z,13.60
2018-03-14T15:56:56.748Z,14.63
2018-03-14T15:59:24.208Z,13.18
2018-03-14T16:01:51.667Z,12.45
2018-03-14T16:04:19.142Z,13.18
2018-03-14T16:06:46.586Z,12.68
2018-03-14T16:09:14.054Z,12.80
2018-03-14T16:11:41.502Z,15.75
2018-03-14T16:14:08.973Z,12.73
2018-03-14T16:16:36.425Z,11.18
2018-03-14T16:19:03.913Z,10.50
2018-03-14T16:21:31.363Z,12.88
2018-03-14T16:23:58.830Z,11.85
2018-03-14T16:26:26.283Z,15.07
2018-03-14T16:28:53.762Z,16.65
2018-03-14T16:31:21.205Z,10.88
2018-03-14T16:33:48.776Z,11.07
2018-03-14T16:36:16.234Z,11.18
2018-03-14T16:38:43.704Z,14.27
2018-03-14T16:41:11.254Z,11.63
2018-03-14T16:43:38.733Z,15.18
2018-03-14T16:46:06.190Z,11.82
2018-03-14T16:48:33.699Z,9.43
2018-03-14T16:51:01.165Z,15.45
2018-03-14T16:53:28.643Z,10.82
2018-03-14T16:55:56.991Z,16.45
2018-03-14T16:58:24.470Z,10.13
2018-03-14T17:00:51.961Z,12.20
2018-03-14T17:03:19.426Z,10.55
2018-03-14T17:05:46.882Z,15.98
2018-03-14T17:08:14.339Z,12.43
2018-03-14T17:10:41.810Z,10.65
2018-03-14T17:13:09.278Z,12.48
2018-03-14T17:15:36.772Z,11.93
2018-03-14T17:18:04.209Z,12.60
2018-03-14T17:20:32.622Z,13.60
2018-03-14T17:23:00.054Z,8.40
2018-03-14T17:25:27.545Z,12.15
2018-03-14T17:27:55.015Z,10.75
2018-03-14T17:30:22.501Z,14.73
2018-03-14T17:32:49.977Z,8.52
2018-03-14T17:35:17.438Z,10.07
2018-03-14T17:37:44.945Z,9.38
2018-03-14T17:40:12.414Z,10.75
2018-03-14T17:42:41.774Z,10.00
2018-03-14T17:45:09.228Z,9.85
2018-03-14T17:47:36.731Z,10.10
2018-03-14T17:50:04.182Z,8.95
2018-03-14T17:52:31.636Z,8.07
2018-03-14T17:55:00.997Z,9.38
2018-03-14T17:57:28.452Z,9.88
2018-03-14T17:59:55.913Z,13.05
2018-03-14T18:02:23.372Z,14.82
2018-03-14T18:04:50.824Z,11.15
2018-03-14T18:07:21.213Z,12.70
2018-03-14T18:09:48.782Z,12.52
2018-03-14T18:12:16.288Z,9.55
2018-03-14T18:14:43.757Z,17.95
2018-03-14T18:17:11.225Z,9.52
2018-03-14T18:19:38.762Z,10.77
2018-03-14T18:22:07.153Z,15.23
2018-03-14T18:24:35.504Z,10.88
2018-03-14T18:27:03.011Z,10.20
2018-03-14T18:29:30.481Z,8.50
2018-03-14T18:31:57.970Z,9.77
2018-03-14T18:34:25.453Z,7.03
2018-03-14T18:36:53.825Z,10.95
2018-03-14T18:39:21.271Z,8.95
2018-03-14T18:41:48.741Z,9.52
2018-03-14T18:44:16.176Z,7.30
2018-03-14T18:46:44.537Z,8.77
2018-03-14T18:49:12.015Z,8.27
2018-03-14T18:51:41.387Z,5.35
2018-03-14T18:54:08.833Z,9.57
2018-03-14T18:56:36.304Z,7.43
2018-03-14T18:59:03.761Z,8.52
2018-03-14T19:01:31.228Z,8.18
2018-03-14T19:03:58.685Z,10.00
2018-03-14T19:06:26.157Z,12.70
2018-03-14T19:08:53.613Z,12.15
2018-03-14T19:11:21.108Z,13.62
2018-03-14T19:13:48.564Z,12.15
2018-03-14T19:16:16.092Z,13.95
2018-03-14T19:18:44.446Z,12.13
2018-03-14T19:21:11.912Z,10.52
2018-03-14T19:23:39.361Z,10.45
2018-03-14T19:26:06.841Z,18.05
2018-03-14T19:28:37.516Z,13.77
2018-03-14T19:31:05.016Z,12.77
2018-03-14T19:33:32.476Z,15.27
2018-03-14T19:35:59.957Z,15.73
2018-03-14T19:38:28.321Z,17.58
2018-03-14T19:40:55.790Z,14.55
2018-03-14T19:43:24.163Z,17.45
2018-03-14T19:45:51.653Z,17.65
2018-03-14T19:48:19.124Z,19.20
2018-03-14T19:53:22.167Z,15.18
2018-03-14T19:55:54.358Z,20.10
2018-03-14T19:58:21.819Z,15.90
2018-03-14T20:00:51.223Z,18.52
2018-03-14T20:03:18.679Z,17.05
2018-03-14T20:05:46.148Z,17.52
2018-03-14T20:08:13.728Z,20.25
2018-03-14T20:10:41.218Z,23.42
2018-03-14T20:13:08.673Z,19.35
2018-03-14T20:15:36.158Z,20.15
2018-03-14T20:18:03.632Z,21.77
2018-03-14T20:20:32.000Z,20.42
2018-03-14T20:22:59.457Z,22.27
2018-03-14T20:25:26.944Z,19.55
2018-03-14T20:27:55.122Z,19.40
2018-03-14T20:30:23.497Z,23.08
2018-03-14T20:32:50.950Z,22.67
2018-03-14T20:35:18.421Z,20.42
2018-03-14T20:37:45.883Z,17.60
2018-03-14T20:40:15.281Z,21.77
2018-03-14T20:42:42.749Z,21.12
2018-03-14T20:45:12.125Z,24.63
2018-03-14T20:47:40.490Z,24.17
2018-03-14T20:50:07.961Z,20.00
2018-03-14T20:52:36.317Z,19.33
2018-03-14T20:55:03.797Z,21.25
2018-03-14T20:57:31.250Z,22.80
2018-03-14T20:59:58.722Z,24.52
2018-03-14T21:02:26.177Z,22.20
2018-03-14T21:04:53.666Z,23.27
2018-03-14T21:07:21.121Z,19.65
2018-03-14T21:09:49.459Z,21.62
2018-03-14T21:12:16.921Z,21.85
2018-03-14T21:14:44.450Z,26.77
2018-03-14T21:17:11.909Z,23.55
2018-03-14T21:19:39.400Z,21.40
2018-03-14T21:22:06.856Z,20.65
2018-03-14T21:24:34.325Z,21.98
2018-03-14T21:27:01.794Z,22.73
2018-03-14T21:29:29.275Z,22.13
2018-03-14T21:31:56.734Z,26.40
2018-03-14T21:34:24.217Z,22.95
2018-03-14T21:36:51.678Z,20.85
2018-03-14T21:39:19.206Z,24.27
2018-03-14T21:41:46.617Z,21.30
2018-03-14T21:44:14.111Z,20.92
2018-03-14T21:46:41.628Z,24.48
2018-03-14T21:49:09.032Z,24.33
2018-03-14T21:51:36.509Z,23.60
2018-03-14T21:54:03.971Z,25.92
2018-03-14T21:56:31.443Z,21.67
2018-03-14T21:58:58.893Z,21.05
2018-03-14T22:01:26.370Z,20.25
2018-03-14T22:03:53.833Z,25.30
2018-03-14T22:06:21.337Z,19.92
2018-03-14T22:08:48.785Z,25.17
2018-03-14T22:11:16.271Z,25.20
2018-03-14T22:13:43.743Z,27.83
2018-03-14T22:16:11.224Z,24.87
2018-03-14T22:18:38.698Z,22.30
2018-03-14T22:21:06.185Z,23.62
2018-03-14T22:23:33.642Z,22.42
2018-03-14T22:26:01.117Z,22.20
2018-03-14T22:28:28.584Z,22.08
2018-03-14T22:30:56.096Z,26.08
2018-03-14T22:33:23.553Z,27.00
2018-03-14T22:35:51.041Z,24.23
2018-03-14T22:38:18.493Z,25.80
2018-03-14T22:40:45.970Z,26.48
2018-03-14T22:43:13.446Z,27.37
2018-03-14T22:45:40.936Z,28.65
2018-03-14T22:48:08.403Z,28.45
2018-03-14T22:50:35.885Z,27.27
2018-03-14T22:53:04.265Z,25.42
2018-03-14T22:55:31.735Z,30.37
2018-03-14T22:57:59.191Z,29.00
2018-03-14T23:00:26.682Z,30.08
2018-03-14T23:02:54.137Z,30.62
2018-03-14T23:05:21.621Z,28.02
2018-03-14T23:07:49.078Z,29.00
2018-03-14T23:10:16.570Z,30.55
2018-03-14T23:12:44.046Z,33.72
2018-03-14T23:15:11.518Z,29.50
2018-03-14T23:17:38.983Z,31.95
2018-03-14T23:20:06.442Z,31.95
2018-03-14T23:22:33.908Z,34.10
2018-03-14T23:25:01.379Z,33.38
2018-03-14T23:27:28.833Z,30.92
2018-03-14T23:29:56.304Z,33.45
2018-03-14T23:32:23.757Z,30.92
2018-03-14T23:34:51.217Z,29.75
2018-03-14T23:37:18.742Z,32.40
2018-03-14T23:39:46.174Z,29.20
2018-03-14T23:42:13.641Z,33.17
2018-03-14T23:44:41.093Z,32.20
2018-03-14T23:47:08.560Z,33.08
2018-03-14T23:49:36.025Z,31.37
2018-03-14T23:52:03.477Z,29.52
2018-03-14T23:54:30.947Z,31.10
2018-03-14T23:56:58.402Z,27.83
2018-03-14T23:59:25.882Z,29.33
